createdAt,value
2018-05-29T00:02:13.993Z,93.40
2018-05-29T00:04:41.457Z,93.40
2018-05-29T00:07:08.912Z,93.40
2018-05-29T00:09:36.353Z,93.50
2018-05-29T00:12:03.789Z,93.60
2018-05-29T00:14:31.220Z,93.60
2018-05-29T00:16:59.431Z,93.80
2018-05-29T00:19:26.862Z,93.80
2018-05-29T00:21:55.088Z,94.10
2018-05-29T00:24:22.530Z,94.10
2018-05-29T00:26:49.978Z,94.20
2018-05-29T00:29:17.405Z,94.20
2018-05-29T00:31:45.610Z,94.20
2018-05-29T00:34:13.036Z,94.10
2018-05-29T00:36:41.253Z,94.20
2018-05-29T00:39:08.701Z,94.20
2018-05-29T00:41:36.160Z,94.30
2018-05-29T00:44:03.590Z,94.30
2018-05-29T00:46:31.847Z,94.50
2018-05-29T00:49:00.092Z,94.70
2018-05-29T00:51:27.539Z,94.60
2018-05-29T00:53:54.986Z,94.70
2018-05-29T00:56:22.422Z,94.80
2018-05-29T00:58:49.870Z,94.90
2018-05-29T01:01:18.053Z,95.00
2018-05-29T01:03:45.502Z,95.00
2018-05-29T01:06:12.935Z,95.00
2018-05-29T01:08:41.140Z,95.10
2018-05-29T01:11:08.581Z,95.10
2018-05-29T01:13:36.816Z,95.20
2018-05-29T01:16:04.249Z,95.20
2018-05-29T01:18:31.692Z,95.30
2018-05-29T01:20:59.124Z,95.40
2018-05-29T01:23:26.574Z,95.50
2018-05-29T01:25:54.776Z,95.70
2018-05-29T01:28:22.218Z,95.70
2018-05-29T01:30:49.653Z,95.70
2018-05-29T01:33:17.862Z,95.90
2018-05-29T01:35:45.296Z,95.90
2018-05-29T01:38:12.748Z,96.20
2018-05-29T01:40:40.962Z,96.20
2018-05-29T01:43:08.391Z,96.20
2018-05-29T01:45:35.830Z,96.20
2018-05-29T01:48:04.050Z,96.20
2018-05-29T01:50:31.531Z,96.20
2018-05-29T01:52:58.988Z,96.20
2018-05-29T01:55:26.451Z,96.30
2018-05-29T01:57:53.881Z,96.40
2018-05-29T02:00:21.325Z,96.40
2018-05-29T02:02:48.766Z,96.50
2018-05-29T02:05:16.197Z,96.60
2018-05-29T02:07:44.397Z,96.70
2018-05-29T02:10:11.860Z,96.70
2018-05-29T02:12:39.321Z,96.70
2018-05-29T02:15:06.794Z,96.80
2018-05-29T02:17:34.249Z,96.90
2018-05-29T02:20:01.685Z,97.10
2018-05-29T02:22:29.125Z,97.10
2018-05-29T02:24:56.551Z,97.10
2018-05-29T02:27:23.987Z,97.30
2018-05-29T02:29:51.427Z,97.30
2018-05-29T02:32:18.884Z,97.80
2018-05-29T02:34:46.349Z,97.80
2018-05-29T02:37:13.819Z,97.60
2018-05-29T02:39:41.261Z,97.50
2018-05-29T02:42:08.713Z,97.50
2018-05-29T02:44:36.148Z,97.30
2018-05-29T02:47:03.581Z,97.30
2018-05-29T02:49:31.097Z,97.20
2018-05-29T02:51:58.557Z,97.10
2018-05-29T02:54:26.006Z,97.00
2018-05-29T02:56:53.452Z,97.00
2018-05-29T02:59:20.909Z,97.20
2018-05-29T03:01:48.359Z,97.10
2018-05-29T03:04:15.800Z,97.10
2018-05-29T03:06:43.233Z,96.90
2018-05-29T03:09:11.440Z,96.80
2018-05-29T03:11:38.868Z,96.80
2018-05-29T03:14:07.101Z,96.60
2018-05-29T03:16:34.524Z,96.60
2018-05-29T03:19:01.981Z,96.60
2018-05-29T03:21:29.409Z,96.70
2018-05-29T03:23:57.636Z,96.80
2018-05-29T03:26:25.106Z,96.70
2018-05-29T03:28:52.524Z,96.70
2018-05-29T03:31:19.981Z,96.70
2018-05-29T03:33:47.417Z,96.70
2018-05-29T03:36:14.858Z,96.80
2018-05-29T03:38:43.060Z,96.80
2018-05-29T03:41:10.500Z,96.80
2018-05-29T03:43:37.936Z,96.80
2018-05-29T03:46:06.196Z,96.90
2018-05-29T03:48:33.657Z,96.80
2018-05-29T03:51:01.116Z,96.90
2018-05-29T03:53:28.550Z,96.90
2018-05-29T03:55:55.985Z,97.20
2018-05-29T03:58:23.463Z,97.10
2018-05-29T04:00:50.923Z,97.10
2018-05-29T04:03:18.346Z,97.10
2018-05-29T04:05:45.784Z,97.10
2018-05-29T04:08:13.263Z,97.00
2018-05-29T04:10:41.464Z,97.10
2018-05-29T04:13:08.920Z,97.10
2018-05-29T04:15:36.359Z,97.10
2018-05-29T04:18:03.796Z,97.10
2018-05-29T04:20:31.235Z,97.20
2018-05-29T04:22:58.685Z,97.30
2018-05-29T04:25:26.923Z,97.20
2018-05-29T04:27:54.377Z,97.20
2018-05-29T04:30:21.812Z,97.10
2018-05-29T04:32:49.258Z,97.20
2018-05-29T04:35:16.692Z,97.10
2018-05-29T04:37:44.136Z,97.00
2018-05-29T04:40:12.342Z,96.90
2018-05-29T04:42:39.781Z,96.80
2018-05-29T04:45:07.225Z,96.80
2018-05-29T04:47:35.426Z,96.60
2018-05-29T04:50:02.920Z,96.60
2018-05-29T04:52:30.348Z,96.60
2018-05-29T04:54:57.788Z,96.40
2018-05-29T04:57:25.232Z,96.30
2018-05-29T04:59:53.442Z,96.10
2018-05-29T05:02:20.878Z,96.10
2018-05-29T05:04:48.373Z,95.90
2018-05-29T05:07:15.814Z,95.90
2018-05-29T05:09:43.255Z,95.70
2018-05-29T05:12:10.701Z,95.60
2018-05-29T05:14:38.151Z,95.60
2018-05-29T05:17:05.591Z,95.40
2018-05-29T05:19:33.804Z,95.00
2018-05-29T05:22:01.243Z,95.00
2018-05-29T05:24:28.693Z,94.90
2018-05-29T05:26:56.150Z,94.70
2018-05-29T05:29:24.360Z,94.60
2018-05-29T05:31:51.834Z,94.60
2018-05-29T05:34:19.289Z,94.60
2018-05-29T05:36:46.728Z,94.40
2018-05-29T05:39:14.159Z,94.20
2018-05-29T05:41:41.606Z,94.10
2018-05-29T05:44:09.045Z,94.10
2018-05-29T05:46:37.260Z,93.90
2018-05-29T05:49:04.708Z,93.90
2018-05-29T05:51:32.171Z,94.00
2018-05-29T05:53:59.733Z,93.80
2018-05-29T05:56:27.179Z,93.90
2018-05-29T05:58:54.607Z,93.80
2018-05-29T06:01:22.826Z,93.80
2018-05-29T06:03:50.271Z,93.80
2018-05-29T06:06:17.715Z,93.80
2018-05-29T06:08:45.164Z,93.80
2018-05-29T06:11:12.630Z,93.70
2018-05-29T06:13:40.105Z,93.60
2018-05-29T06:16:08.333Z,93.30
2018-05-29T06:18:36.546Z,92.90
2018-05-29T06:21:04.002Z,92.90
2018-05-29T06:23:31.436Z,92.70
2018-05-29T06:25:59.680Z,92.30
2018-05-29T06:28:27.187Z,92.30
2018-05-29T06:30:54.637Z,92.20
2018-05-29T06:33:22.074Z,92.00
2018-05-29T06:35:50.312Z,91.80
2018-05-29T06:38:17.796Z,91.70
2018-05-29T06:40:45.953Z,91.60
2018-05-29T06:43:13.416Z,91.50
2018-05-29T06:45:40.905Z,91.40
2018-05-29T06:48:08.387Z,91.40
2018-05-29T06:50:35.824Z,91.10
2018-05-29T06:53:03.274Z,90.70
2018-05-29T06:55:30.764Z,90.70
2018-05-29T06:57:58.206Z,90.40
2018-05-29T07:00:25.645Z,90.50
2018-05-29T07:02:53.859Z,90.20
2018-05-29T07:05:21.318Z,90.20
2018-05-29T07:07:48.774Z,89.40
2018-05-29T07:10:16.224Z,88.50
2018-05-29T07:12:43.677Z,88.60
2018-05-29T07:15:11.126Z,88.80
2018-05-29T07:17:38.568Z,88.60
2018-05-29T07:20:06.028Z,88.70
2018-05-29T07:22:33.478Z,89.60
2018-05-29T07:25:01.676Z,88.50
2018-05-29T07:27:29.136Z,88.50
2018-05-29T07:29:56.572Z,87.90
2018-05-29T07:32:24.017Z,87.00
2018-05-29T07:34:52.225Z,86.80
2018-05-29T07:37:19.658Z,86.80
2018-05-29T07:39:47.147Z,86.50
2018-05-29T07:42:15.342Z,87.30
2018-05-29T07:44:42.777Z,87.30
2018-05-29T07:47:10.256Z,87.00
2018-05-29T07:49:37.825Z,87.10
2018-05-29T07:52:05.382Z,86.60
2018-05-29T07:54:32.890Z,86.30
2018-05-29T07:57:00.361Z,86.60
2018-05-29T07:59:27.796Z,86.20
2018-05-29T08:01:55.344Z,86.20
2018-05-29T08:04:23.708Z,85.50
2018-05-29T08:06:51.272Z,85.50
2018-05-29T08:09:18.913Z,85.00
2018-05-29T08:11:46.586Z,84.80
2018-05-29T08:14:14.125Z,84.60
2018-05-29T08:16:41.683Z,84.00
2018-05-29T08:19:09.454Z,84.50
2018-05-29T08:21:37.705Z,84.30
2018-05-29T08:24:05.289Z,84.30
2018-05-29T08:26:33.608Z,83.50
2018-05-29T08:29:01.059Z,83.30
2018-05-29T08:31:29.297Z,82.10
2018-05-29T08:33:56.774Z,82.10
2018-05-29T08:36:24.256Z,82.00
2018-05-29T08:38:51.846Z,81.90
2018-05-29T08:41:19.284Z,81.30
2018-05-29T08:43:46.730Z,80.70
2018-05-29T08:46:14.177Z,79.80
2018-05-29T08:48:42.389Z,81.30
2018-05-29T08:51:09.833Z,80.50
2018-05-29T08:53:37.282Z,80.80
2018-05-29T08:56:04.758Z,80.20
2018-05-29T08:58:32.176Z,80.40
2018-05-29T09:01:00.437Z,79.80
2018-05-29T09:03:28.761Z,78.80
2018-05-29T09:05:56.201Z,78.80
2018-05-29T09:08:23.649Z,78.00
2018-05-29T09:10:51.096Z,77.10
2018-05-29T09:13:19.301Z,76.90
2018-05-29T09:15:46.738Z,76.90
2018-05-29T09:18:14.185Z,78.60
2018-05-29T09:20:42.390Z,78.50
2018-05-29T09:23:10.616Z,77.40
2018-05-29T09:25:38.041Z,77.30
2018-05-29T09:28:05.495Z,76.70
2018-05-29T09:30:33.382Z,77.10
2018-05-29T09:33:01.598Z,77.10
2018-05-29T09:35:29.918Z,76.80
2018-05-29T09:37:58.089Z,76.60
2018-05-29T09:40:25.628Z,76.60
2018-05-29T09:42:53.222Z,77.30
2018-05-29T09:45:20.660Z,77.00
2018-05-29T09:47:48.106Z,76.90
2018-05-29T09:50:15.553Z,76.90
2018-05-29T09:52:42.990Z,77.40
2018-05-29T09:55:11.211Z,76.10
2018-05-29T09:57:38.654Z,76.10
2018-05-29T10:00:06.101Z,76.90
2018-05-29T10:02:33.540Z,76.20
2018-05-29T10:05:01.926Z,75.00
2018-05-29T10:07:29.444Z,75.00
2018-05-29T10:09:56.914Z,74.20
2018-05-29T10:12:24.413Z,74.00
2018-05-29T10:14:51.867Z,74.00
2018-05-29T10:17:19.309Z,74.10
2018-05-29T10:19:46.757Z,73.70
2018-05-29T10:22:14.959Z,74.20
2018-05-29T10:24:42.421Z,74.20
2018-05-29T10:27:10.175Z,74.10
2018-05-29T10:29:38.266Z,73.40
2018-05-29T10:32:05.702Z,73.10
2018-05-29T10:34:33.153Z,73.60
2018-05-29T10:37:00.589Z,72.50
2018-05-29T10:39:28.935Z,71.40
2018-05-29T10:41:56.380Z,71.40
2018-05-29T10:44:23.840Z,71.10
2018-05-29T10:46:51.593Z,72.80
2018-05-29T10:49:19.371Z,74.00
2018-05-29T10:51:46.816Z,74.50
2018-05-29T10:54:14.260Z,75.30
2018-05-29T10:56:41.701Z,75.60
2018-05-29T10:59:09.316Z,75.80
2018-05-29T11:01:36.847Z,76.30
2018-05-29T11:04:04.475Z,76.60
2018-05-29T11:06:31.986Z,76.60
2018-05-29T11:08:59.417Z,76.40
2018-05-29T11:11:26.863Z,76.30
2018-05-29T11:13:54.305Z,76.70
2018-05-29T11:16:21.754Z,77.00
2018-05-29T11:18:49.957Z,77.20
2018-05-29T11:21:17.400Z,77.10
2018-05-29T11:23:44.854Z,77.30
2018-05-29T11:26:12.297Z,77.70
2018-05-29T11:28:40.501Z,77.00
2018-05-29T11:31:07.966Z,77.00
2018-05-29T11:33:35.400Z,77.20
2018-05-29T11:36:02.851Z,77.30
2018-05-29T11:38:31.052Z,78.30
2018-05-29T11:40:58.504Z,78.20
2018-05-29T11:43:25.965Z,78.30
2018-05-29T11:45:53.390Z,78.70
2018-05-29T11:48:21.594Z,80.20
2018-05-29T11:50:49.042Z,80.20
2018-05-29T11:53:16.510Z,81.00
2018-05-29T11:55:44.002Z,81.70
2018-05-29T11:58:11.462Z,82.40
2018-05-29T12:00:38.939Z,82.90
2018-05-29T12:03:06.349Z,83.20
2018-05-29T12:05:33.887Z,83.70
2018-05-29T12:08:01.320Z,84.20
2018-05-29T12:10:29.539Z,84.90
2018-05-29T12:12:57.742Z,85.30
2018-05-29T12:15:25.191Z,85.30
2018-05-29T12:17:52.631Z,85.50
2018-05-29T12:20:20.200Z,85.80
2018-05-29T12:22:47.859Z,86.00
2018-05-29T12:25:15.340Z,86.10
2018-05-29T12:27:42.987Z,86.60
2018-05-29T12:30:10.599Z,87.20
2018-05-29T12:32:38.034Z,74.30
2018-05-29T12:35:05.536Z,77.30
2018-05-29T12:37:33.741Z,80.60
2018-05-29T12:40:01.225Z,80.60
2018-05-29T12:42:29.452Z,84.20
2018-05-29T12:44:56.995Z,84.30
2018-05-29T12:47:24.528Z,86.10
2018-05-29T12:49:51.993Z,88.00
2018-05-29T12:52:19.468Z,88.90
2018-05-29T12:54:47.800Z,90.00
2018-05-29T12:57:16.218Z,90.80
2018-05-29T12:59:43.832Z,90.70
2018-05-29T13:02:11.273Z,92.30
2018-05-29T13:04:38.769Z,92.50
2018-05-29T13:07:07.085Z,93.40
2018-05-29T13:09:34.576Z,93.40
2018-05-29T13:12:02.138Z,94.10
2018-05-29T13:14:29.671Z,95.20
2018-05-29T13:16:57.302Z,95.00
2018-05-29T13:19:24.839Z,95.20
2018-05-29T13:21:53.045Z,95.40
2018-05-29T13:24:20.474Z,95.40
2018-05-29T13:26:47.909Z,95.70
2018-05-29T13:29:16.142Z,96.10
2018-05-29T13:31:43.581Z,96.00
2018-05-29T13:34:11.828Z,96.30
2018-05-29T13:36:40.042Z,97.30
2018-05-29T13:39:07.513Z,97.30
2018-05-29T13:41:34.922Z,97.60
2018-05-29T13:44:02.358Z,98.10
2018-05-29T13:46:29.824Z,99.20
2018-05-29T13:48:58.027Z,99.90
2018-05-29T13:51:25.491Z,99.90
2018-05-29T13:53:52.945Z,99.90
2018-05-29T13:56:20.373Z,99.90
2018-05-29T13:58:48.618Z,99.90
2018-05-29T14:01:16.053Z,99.90
2018-05-29T14:03:43.507Z,99.90
2018-05-29T14:06:10.970Z,99.90
2018-05-29T14:08:38.412Z,99.90
2018-05-29T14:11:05.858Z,99.90
2018-05-29T14:13:33.303Z,99.90
2018-05-29T14:16:01.005Z,99.90
2018-05-29T14:18:29.213Z,99.90
2018-05-29T14:20:57.425Z,99.90
2018-05-29T14:23:24.862Z,99.90
2018-05-29T14:25:52.403Z,99.90
2018-05-29T14:28:20.638Z,99.90
2018-05-29T14:30:48.090Z,99.90
2018-05-29T14:33:15.532Z,99.90
2018-05-29T14:35:43.004Z,99.90
2018-05-29T14:38:10.450Z,99.90
2018-05-29T14:40:37.920Z,99.90
2018-05-29T14:43:05.388Z,99.90
2018-05-29T14:45:32.824Z,99.90
2018-05-29T14:48:00.267Z,99.90
2018-05-29T14:50:27.722Z,99.90
2018-05-29T14:52:55.175Z,99.90
2018-05-29T14:55:22.617Z,99.90
2018-05-29T14:57:50.073Z,99.90
2018-05-29T15:00:17.513Z,99.90
2018-05-29T15:02:45.723Z,99.90
2018-05-29T15:05:13.927Z,99.90
2018-05-29T15:07:41.380Z,99.90
2018-05-29T15:10:09.581Z,99.90
2018-05-29T15:12:37.801Z,99.90
2018-05-29T15:15:05.234Z,99.90
2018-05-29T15:17:32.660Z,99.90
2018-05-29T15:20:01.624Z,99.90
2018-05-29T15:22:29.061Z,99.90
2018-05-29T15:24:56.558Z,99.90
2018-05-29T15:27:24.179Z,99.70
2018-05-29T15:29:52.447Z,99.90
2018-05-29T15:32:19.884Z,99.90
2018-05-29T15:34:48.094Z,99.60
2018-05-29T15:37:19.332Z,99.60
2018-05-29T15:39:46.828Z,99.30
2018-05-29T15:42:14.261Z,99.20
2018-05-29T15:44:41.726Z,99.10
2018-05-29T15:47:09.176Z,99.00
2018-05-29T15:49:38.792Z,98.90
2018-05-29T15:52:07.282Z,98.80
2018-05-29T15:54:34.709Z,98.80
2018-05-29T15:57:02.912Z,98.30
2018-05-29T15:59:30.348Z,98.30
2018-05-29T16:01:57.792Z,98.30
2018-05-29T16:04:25.252Z,98.10
2018-05-29T16:06:52.689Z,98.20
2018-05-29T16:09:20.919Z,97.90
2018-05-29T16:11:48.359Z,97.90
2018-05-29T16:14:15.868Z,97.70
2018-05-29T16:16:43.270Z,97.80
2018-05-29T16:19:10.727Z,97.30
2018-05-29T16:21:38.185Z,97.40
2018-05-29T16:24:05.635Z,97.30
2018-05-29T16:26:34.496Z,97.50
2018-05-29T16:29:02.065Z,97.50
2018-05-29T16:31:29.501Z,96.50
2018-05-29T16:33:57.710Z,96.30
2018-05-29T16:36:25.881Z,96.30
2018-05-29T16:38:53.472Z,96.10
2018-05-29T16:41:20.901Z,96.20
2018-05-29T16:43:48.651Z,96.60
2018-05-29T16:46:16.128Z,96.50
2018-05-29T16:48:44.786Z,96.50
2018-05-29T16:51:12.262Z,96.60
2018-05-29T16:53:39.692Z,96.50
2018-05-29T16:56:07.546Z,96.60
2018-05-29T16:58:35.117Z,96.50
2018-05-29T17:01:02.575Z,96.50
2018-05-29T17:03:30.781Z,96.50
2018-05-29T17:05:58.233Z,96.50
2018-05-29T17:08:25.841Z,96.30
2018-05-29T17:10:54.049Z,96.20
2018-05-29T17:13:21.480Z,96.20
2018-05-29T17:15:49.701Z,95.60
2018-05-29T17:18:17.134Z,95.60
2018-05-29T17:20:44.578Z,94.90
2018-05-29T17:23:12.018Z,94.60
2018-05-29T17:25:40.245Z,94.40
2018-05-29T17:28:07.681Z,94.40
2018-05-29T17:30:35.127Z,94.20
2018-05-29T17:33:02.569Z,94.40
2018-05-29T17:35:30.884Z,93.40
2018-05-29T17:37:58.549Z,93.40
2018-05-29T17:40:27.098Z,92.10
2018-05-29T17:42:54.635Z,91.80
2018-05-29T17:45:22.880Z,92.00
2018-05-29T17:47:50.356Z,92.30
2018-05-29T17:50:19.252Z,92.00
2018-05-29T17:52:47.658Z,92.00
2018-05-29T17:55:15.243Z,92.00
2018-05-29T17:57:42.743Z,92.40
2018-05-29T18:00:10.990Z,92.90
2018-05-29T18:02:38.653Z,92.80
2018-05-29T18:05:06.297Z,93.10
2018-05-29T18:07:33.786Z,93.30
2018-05-29T18:10:01.521Z,93.70
2018-05-29T18:12:29.265Z,93.90
2018-05-29T18:14:56.741Z,93.80
2018-05-29T18:17:24.257Z,93.90
2018-05-29T18:19:52.670Z,94.10
2018-05-29T18:22:20.154Z,94.10
2018-05-29T18:24:47.632Z,94.10
2018-05-29T18:27:15.081Z,94.20
2018-05-29T18:29:42.509Z,94.40
2018-05-29T18:32:10.716Z,94.60
2018-05-29T18:34:38.156Z,94.60
2018-05-29T18:37:05.598Z,94.70
2018-05-29T18:39:33.040Z,94.80
2018-05-29T18:42:00.486Z,94.90
2018-05-29T18:44:27.930Z,95.00
2018-05-29T18:46:55.369Z,95.00
2018-05-29T18:49:23.575Z,95.20
2018-05-29T18:51:51.021Z,95.10
2018-05-29T18:54:18.465Z,95.00
2018-05-29T18:56:46.675Z,95.00
2018-05-29T18:59:14.100Z,95.00
2018-05-29T19:01:42.308Z,95.00
2018-05-29T19:04:09.789Z,95.10
2018-05-29T19:06:37.231Z,95.10
2018-05-29T19:09:05.544Z,95.00
2018-05-29T19:11:33.167Z,95.10
2018-05-29T19:14:01.463Z,95.20
2018-05-29T19:16:29.136Z,95.20
2018-05-29T19:18:56.685Z,95.20
2018-05-29T19:21:24.950Z,95.40
2018-05-29T19:23:52.393Z,95.30
2018-05-29T19:26:19.840Z,95.40
2018-05-29T19:28:47.375Z,95.40
2018-05-29T19:31:14.813Z,95.60
2018-05-29T19:33:43.007Z,95.90
2018-05-29T19:36:10.436Z,95.80
2018-05-29T19:38:38.646Z,95.80
2018-05-29T19:41:06.085Z,95.80
2018-05-29T19:43:34.317Z,96.20
2018-05-29T19:46:01.752Z,95.90
2018-05-29T19:48:29.197Z,95.90
2018-05-29T19:50:56.760Z,95.90
2018-05-29T19:53:24.434Z,96.00
2018-05-29T19:55:51.894Z,96.00
2018-05-29T19:58:19.340Z,96.10
2018-05-29T20:00:46.915Z,96.20
2018-05-29T20:03:14.373Z,96.30
2018-05-29T20:05:41.811Z,96.30
2018-05-29T20:08:09.311Z,96.30
2018-05-29T20:10:36.806Z,96.40
2018-05-29T20:13:04.196Z,96.90
2018-05-29T20:15:31.633Z,96.50
2018-05-29T20:17:59.109Z,96.60
2018-05-29T20:20:26.544Z,96.70
2018-05-29T20:22:53.990Z,96.90
2018-05-29T20:25:21.429Z,96.90
2018-05-29T20:27:49.640Z,97.00
2018-05-29T20:30:17.082Z,96.90
2018-05-29T20:32:44.559Z,97.00
2018-05-29T20:35:11.998Z,97.10
2018-05-29T20:37:39.436Z,97.30
2018-05-29T20:40:06.879Z,97.30
2018-05-29T20:42:35.096Z,97.30
2018-05-29T20:45:02.542Z,97.30
2018-05-29T20:47:29.976Z,97.30
2018-05-29T20:49:57.424Z,97.40
2018-05-29T20:52:25.626Z,97.40
2018-05-29T20:57:19.786Z,97.40
2018-05-29T20:59:47.999Z,97.50
2018-05-29T21:02:15.495Z,97.50
2018-05-29T21:04:42.881Z,97.60
2018-05-29T21:07:11.084Z,97.60
2018-05-29T21:09:38.541Z,97.60
2018-05-29T21:12:06.003Z,97.70
2018-05-29T21:14:33.453Z,97.70
2018-05-29T21:17:00.880Z,97.70
2018-05-29T21:19:29.105Z,97.90
2018-05-29T21:21:56.597Z,97.80
2018-05-29T21:24:24.923Z,98.00
2018-05-29T21:26:52.358Z,97.90
2018-05-29T21:29:19.861Z,98.00
2018-05-29T21:31:48.096Z,98.10
2018-05-29T21:34:15.542Z,98.10
2018-05-29T21:36:43.764Z,98.30
2018-05-29T21:39:11.234Z,98.30
2018-05-29T21:41:38.672Z,98.30
2018-05-29T21:44:06.189Z,98.40
2018-05-29T21:46:33.652Z,98.40
2018-05-29T21:49:01.838Z,98.70
2018-05-29T21:51:29.281Z,98.60
2018-05-29T21:53:56.714Z,98.70
2018-05-29T21:56:24.917Z,98.80
2018-05-29T21:58:53.125Z,98.80
2018-05-29T22:01:20.609Z,98.70
2018-05-29T22:03:48.054Z,98.80
2018-05-29T22:06:15.527Z,98.80
2018-05-29T22:08:42.988Z,98.90
2018-05-29T22:11:10.505Z,99.00
2018-05-29T22:13:37.941Z,99.00
2018-05-29T22:16:05.368Z,99.00
2018-05-29T22:18:33.585Z,99.00
2018-05-29T22:21:01.076Z,99.00
2018-05-29T22:23:28.482Z,99.10
2018-05-29T22:25:55.917Z,99.10
2018-05-29T22:28:24.113Z,99.00
2018-05-29T22:30:51.558Z,99.00
2018-05-29T22:33:18.993Z,99.00
2018-05-29T22:35:47.200Z,99.00
2018-05-29T22:38:14.656Z,98.90
2018-05-29T22:40:42.097Z,98.90
2018-05-29T22:43:09.542Z,98.90
2018-05-29T22:45:37.880Z,98.90
2018-05-29T22:48:05.406Z,99.00
2018-05-29T22:50:32.883Z,98.90
2018-05-29T22:53:00.313Z,99.00
2018-05-29T22:55:27.762Z,98.90
2018-05-29T22:57:55.202Z,98.80
2018-05-29T23:00:23.411Z,98.80
2018-05-29T23:02:52.046Z,98.80
2018-05-29T23:05:20.357Z,98.70
2018-05-29T23:07:47.809Z,98.70
2018-05-29T23:10:16.014Z,98.70
2018-05-29T23:12:43.526Z,98.70
2018-05-29T23:15:11.726Z,98.70
2018-05-29T23:17:39.169Z,98.70
2018-05-29T23:20:06.601Z,98.80
2018-05-29T23:22:34.813Z,98.80
2018-05-29T23:25:02.282Z,98.80
2018-05-29T23:27:29.728Z,98.80
2018-05-29T23:29:57.170Z,98.80
2018-05-29T23:32:24.616Z,98.90
2018-05-29T23:34:52.854Z,98.90
2018-05-29T23:37:21.089Z,99.40
2018-05-29T23:39:48.521Z,98.90
2018-05-29T23:42:16.734Z,99.00
2018-05-29T23:44:44.212Z,99.00
2018-05-29T23:47:11.697Z,99.10
2018-05-29T23:49:39.277Z,99.10
2018-05-29T23:52:06.738Z,99.10
2018-05-29T23:54:34.177Z,99.20
2018-05-29T23:57:02.386Z,99.30
2018-05-29T23:59:29.837Z,99.30
